sensor_id;sensor_type;location;lat;lon;timestamp;pressure;altitude;pressure_sealevel;temperature;humidity
26978;BME280;56314;48.088;11.642;2023-01-29T00:01:32;96264.66;;;-0.45;92.47
26978;BME280;56314;48.088;11.642;2023-01-29T00:03:58;96275.88;;;-0.47;92.47
26978;BME280;56314;48.088;11.642;2023-01-29T00:06:23;96272.53;;;-0.52;92.76
26978;BME280;56314;48.088;11.642;2023-01-29T00:08:49;96264.72;;;-0.47;92.98
26978;BME280;56314;48.088;11.642;2023-01-29T00:11:14;96263.84;;;-0.46;93.27
26978;BME280;56314;48.088;11.642;2023-01-29T00:13:41;96265.59;;;-0.48;92.92
26978;BME280;56314;48.088;11.642;2023-01-29T00:16:06;96260.38;;;-0.45;93.18
26978;BME280;56314;48.088;11.642;2023-01-29T00:18:32;96260.28;;;-0.42;92.41
26978;BME280;56314;48.088;11.642;2023-01-29T00:20:57;96254.25;;;-0.41;92.49
26978;BME280;56314;48.088;11.642;2023-01-29T00:23:22;96263.69;;;-0.40;92.80
26978;BME280;56314;48.088;11.642;2023-01-29T00:25:48;96261.88;;;-0.35;92.66
26978;BME280;56314;48.088;11.642;2023-01-29T00:28:14;96268.03;;;-0.40;92.79
26978;BME280;56314;48.088;11.642;2023-01-29T00:30:41;96267.16;;;-0.41;93.08
26978;BME280;56314;48.088;11.642;2023-01-29T00:33:06;96267.88;;;-0.34;93.21
26978;BME280;56314;48.088;11.642;2023-01-29T00:35:32;96269.69;;;-0.36;93.24
26978;BME280;56314;48.088;11.642;2023-01-29T00:37:58;96274.00;;;-0.38;93.12
26978;BME280;56314;48.088;11.642;2023-01-29T00:40:26;96278.84;;;-0.23;92.91
26978;BME280;56314;48.088;11.642;2023-01-29T00:42:51;96276.59;;;-0.38;92.87
26978;BME280;56314;48.088;11.642;2023-01-29T00:45:35;96276.59;;;-0.40;93.49
26978;BME280;56314;48.088;11.642;2023-01-29T00:48:02;96287.03;;;-0.44;94.24
26978;BME280;56314;48.088;11.642;2023-01-29T00:50:27;96280.94;;;-0.40;94.16
26978;BME280;56314;48.088;11.642;2023-01-29T00:52:53;96282.88;;;-0.52;93.99
26978;BME280;56314;48.088;11.642;2023-01-29T00:55:18;96289.69;;;-0.49;94.83
26978;BME280;56314;48.088;11.642;2023-01-29T00:57:44;96277.66;;;-0.50;94.86
26978;BME280;56314;48.088;11.642;2023-01-29T01:00:14;96282.88;;;-0.53;95.18
26978;BME280;56314;48.088;11.642;2023-01-29T01:02:41;96287.34;;;-0.62;95.50
26978;BME280;56314;48.088;11.642;2023-01-29T01:05:24;96283.94;;;-0.62;95.32
26978;BME280;56314;48.088;11.642;2023-01-29T01:07:54;96280.38;;;-0.56;94.79
26978;BME280;56314;48.088;11.642;2023-01-29T01:10:31;96280.38;;;-0.58;94.68
26978;BME280;56314;48.088;11.642;2023-01-29T01:13:03;96285.72;;;-0.67;94.92
26978;BME280;56314;48.088;11.642;2023-01-29T01:15:33;96280.59;;;-0.69;94.94
26978;BME280;56314;48.088;11.642;2023-01-29T01:18:00;96276.25;;;-0.65;95.07
26978;BME280;56314;48.088;11.642;2023-01-29T01:20:27;96278.94;;;-0.73;94.06
26978;BME280;56314;48.088;11.642;2023-01-29T01:22:53;96284.97;;;-0.72;94.65
26978;BME280;56314;48.088;11.642;2023-01-29T01:25:21;96293.72;;;-0.83;95.36
26978;BME280;56314;48.088;11.642;2023-01-29T01:27:46;96291.94;;;-0.78;94.87
26978;BME280;56314;48.088;11.642;2023-01-29T01:30:14;96292.72;;;-0.72;94.40
26978;BME280;56314;48.088;11.642;2023-01-29T01:32:41;96287.50;;;-0.71;93.11
26978;BME280;56314;48.088;11.642;2023-01-29T01:35:08;96288.50;;;-0.78;93.73
26978;BME280;56314;48.088;11.642;2023-01-29T01:37:34;96281.50;;;-0.71;94.20
26978;BME280;56314;48.088;11.642;2023-01-29T01:40:10;96288.38;;;-0.72;93.84
26978;BME280;56314;48.088;11.642;2023-01-29T01:42:52;96290.97;;;-0.72;94.03
26978;BME280;56314;48.088;11.642;2023-01-29T01:45:24;96288.34;;;-0.69;93.30
26978;BME280;56314;48.088;11.642;2023-01-29T01:47:53;96296.09;;;-0.70;93.23
26978;BME280;56314;48.088;11.642;2023-01-29T01:50:30;96290.22;;;-0.79;93.26
26978;BME280;56314;48.088;11.642;2023-01-29T01:53:06;96283.41;;;-0.83;93.83
26978;BME280;56314;48.088;11.642;2023-01-29T01:55:34;96284.94;;;-0.71;92.29
26978;BME280;56314;48.088;11.642;2023-01-29T01:58:07;96284.19;;;-0.78;92.86
26978;BME280;56314;48.088;11.642;2023-01-29T02:00:33;96289.41;;;-0.79;93.56
26978;BME280;56314;48.088;11.642;2023-01-29T02:03:00;96290.31;;;-0.83;93.83
26978;BME280;56314;48.088;11.642;2023-01-29T02:05:45;96287.78;;;-0.85;93.86
26978;BME280;56314;48.088;11.642;2023-01-29T02:08:55;96291.97;;;-0.79;93.21
26978;BME280;56314;48.088;11.642;2023-01-29T02:11:41;96300.66;;;-0.85;92.44
26978;BME280;56314;48.088;11.642;2023-01-29T02:14:06;96298.09;;;-0.85;92.75
26978;BME280;56314;48.088;11.642;2023-01-29T02:16:35;96300.72;;;-0.89;92.96
26978;BME280;56314;48.088;11.642;2023-01-29T02:19:03;96301.56;;;-0.87;93.11
26978;BME280;56314;48.088;11.642;2023-01-29T02:24:54;96303.16;;;-0.82;92.86
26978;BME280;56314;48.088;11.642;2023-01-29T02:30:36;96303.06;;;-0.75;93.16
26978;BME280;56314;48.088;11.642;2023-01-29T02:41:55;96293.03;;;-0.91;93.41
26978;BME280;56314;48.088;11.642;2023-01-29T02:44:39;96284.41;;;-0.90;92.31
26978;BME280;56314;48.088;11.642;2023-01-29T02:50:00;96282.66;;;-0.89;92.10
26978;BME280;56314;48.088;11.642;2023-01-29T02:52:35;96279.28;;;-0.91;92.73
26978;BME280;56314;48.088;11.642;2023-01-29T02:55:11;96278.44;;;-0.92;92.73
26978;BME280;56314;48.088;11.642;2023-01-29T02:57:38;96274.81;;;-0.82;91.24
26978;BME280;56314;48.088;11.642;2023-01-29T03:00:12;96270.50;;;-0.81;90.46
26978;BME280;56314;48.088;11.642;2023-01-29T03:02:45;96283.41;;;-0.83;91.20
26978;BME280;56314;48.088;11.642;2023-01-29T03:05:19;96278.41;;;-0.90;91.98
26978;BME280;56314;48.088;11.642;2023-01-29T03:07:52;96271.56;;;-0.93;92.11
26978;BME280;56314;48.088;11.642;2023-01-29T03:10:21;96267.16;;;-0.86;92.98
26978;BME280;56314;48.088;11.642;2023-01-29T03:12:55;96274.06;;;-0.87;92.39
26978;BME280;56314;48.088;11.642;2023-01-29T03:15:34;96269.69;;;-0.83;92.27
26978;BME280;56314;48.088;11.642;2023-01-29T03:18:07;96280.91;;;-0.86;92.17
26978;BME280;56314;48.088;11.642;2023-01-29T03:20:42;96283.41;;;-0.83;91.21
26978;BME280;56314;48.088;11.642;2023-01-29T03:23:24;96274.00;;;-0.85;91.53
26978;BME280;56314;48.088;11.642;2023-01-29T03:26:13;96269.78;;;-0.88;92.14
26978;BME280;56314;48.088;11.642;2023-01-29T03:29:00;96271.44;;;-0.85;92.22
26978;BME280;56314;48.088;11.642;2023-01-29T03:31:46;96280.91;;;-0.86;92.62
26978;BME280;56314;48.088;11.642;2023-01-29T03:34:37;96279.03;;;-0.78;91.40
26978;BME280;56314;48.088;11.642;2023-01-29T03:37:50;96289.63;;;-0.93;92.60
26978;BME280;56314;48.088;11.642;2023-01-29T03:40:14;96289.63;;;-0.93;92.48
26978;BME280;56314;48.088;11.642;2023-01-29T03:43:04;96295.78;;;-1.00;92.98
26978;BME280;56314;48.088;11.642;2023-01-29T03:48:09;96284.53;;;-0.98;93.48
26978;BME280;56314;48.088;11.642;2023-01-29T03:58:47;96266.53;;;-0.99;92.84
26978;BME280;56314;48.088;11.642;2023-01-29T04:01:30;96267.16;;;-0.86;92.75
26978;BME280;56314;48.088;11.642;2023-01-29T04:04:21;96262.09;;;-0.91;92.71
26978;BME280;56314;48.088;11.642;2023-01-29T04:06:49;96252.56;;;-0.87;92.73
26978;BME280;56314;48.088;11.642;2023-01-29T04:09:29;96254.25;;;-0.86;92.76
26978;BME280;56314;48.088;11.642;2023-01-29T04:12:10;96251.78;;;-0.91;92.76
26978;BME280;56314;48.088;11.642;2023-01-29T04:14:37;96249.97;;;-0.86;93.27
26978;BME280;56314;48.088;11.642;2023-01-29T04:17:10;96237.06;;;-0.86;93.16
26978;BME280;56314;48.088;11.642;2023-01-29T04:19:37;96242.34;;;-0.92;93.20
26978;BME280;56314;48.088;11.642;2023-01-29T04:22:11;96240.53;;;-0.87;92.86
26978;BME280;56314;48.088;11.642;2023-01-29T04:24:38;96243.97;;;-0.88;93.25
26978;BME280;56314;48.088;11.642;2023-01-29T04:27:36;96244.09;;;-0.94;92.69
26978;BME280;56314;48.088;11.642;2023-01-29T04:35:30;96245.59;;;-0.84;93.20
26978;BME280;56314;48.088;11.642;2023-01-29T04:38:17;96238.78;;;-0.86;92.03
26978;BME280;56314;48.088;11.642;2023-01-29T04:40:58;96251.69;;;-0.86;92.02
26978;BME280;56314;48.088;11.642;2023-01-29T04:43:44;96250.91;;;-0.90;91.70
26978;BME280;56314;48.088;11.642;2023-01-29T04:46:18;96250.84;;;-0.87;92.04
26978;BME280;56314;48.088;11.642;2023-01-29T04:48:59;96252.41;;;-0.80;91.96
26978;BME280;56314;48.088;11.642;2023-01-29T04:57:21;96251.72;;;-0.88;91.65
26978;BME280;56314;48.088;11.642;2023-01-29T05:02:30;96250.03;;;-0.89;89.30
26978;BME280;56314;48.088;11.642;2023-01-29T05:04:57;96256.84;;;-0.86;88.17
26978;BME280;56314;48.088;11.642;2023-01-29T05:07:23;96249.84;;;-0.80;88.91
26978;BME280;56314;48.088;11.642;2023-01-29T05:09:50;96254.03;;;-0.72;87.66
26978;BME280;56314;48.088;11.642;2023-01-29T05:12:16;96254.97;;;-0.78;87.74
26978;BME280;56314;48.088;11.642;2023-01-29T05:14:44;96257.56;;;-0.80;88.60
26978;BME280;56314;48.088;11.642;2023-01-29T05:17:17;96255.81;;;-0.78;89.04
26978;BME280;56314;48.088;11.642;2023-01-29T05:19:44;96259.00;;;-0.63;89.72
26978;BME280;56314;48.088;11.642;2023-01-29T05:22:11;96266.09;;;-0.76;89.50
26978;BME280;56314;48.088;11.642;2023-01-29T05:24:37;96265.31;;;-0.80;89.32
26978;BME280;56314;48.088;11.642;2023-01-29T05:27:03;96264.53;;;-0.83;89.99
26978;BME280;56314;48.088;11.642;2023-01-29T05:29:47;96274.78;;;-0.80;90.43
26978;BME280;56314;48.088;11.642;2023-01-29T05:32:13;96267.06;;;-0.80;90.10
26978;BME280;56314;48.088;11.642;2023-01-29T05:34:39;96280.84;;;-0.83;90.56
26978;BME280;56314;48.088;11.642;2023-01-29T05:37:04;96284.28;;;-0.84;90.94
26978;BME280;56314;48.088;11.642;2023-01-29T05:39:30;96281.66;;;-0.81;91.01
26978;BME280;56314;48.088;11.642;2023-01-29T05:41:56;96288.50;;;-0.78;90.27
26978;BME280;56314;48.088;11.642;2023-01-29T05:44:21;96291.81;;;-0.70;90.18
26978;BME280;56314;48.088;11.642;2023-01-29T05:46:47;96297.91;;;-0.75;90.44
26978;BME280;56314;48.088;11.642;2023-01-29T05:49:12;96305.63;;;-0.72;90.61
26978;BME280;56314;48.088;11.642;2023-01-29T05:51:37;96306.56;;;-0.80;90.43
26978;BME280;56314;48.088;11.642;2023-01-29T05:54:03;96290.19;;;-0.75;89.90
26978;BME280;56314;48.088;11.642;2023-01-29T05:56:29;96294.50;;;-0.78;89.02
26978;BME280;56314;48.088;11.642;2023-01-29T05:58:54;96300.47;;;-0.74;88.95
26978;BME280;56314;48.088;11.642;2023-01-29T06:01:23;96298.88;;;-0.81;88.04
26978;BME280;56314;48.088;11.642;2023-01-29T06:03:49;96286.88;;;-0.82;87.28
26978;BME280;56314;48.088;11.642;2023-01-29T06:06:15;96289.44;;;-0.84;86.90
26978;BME280;56314;48.088;11.642;2023-01-29T06:08:40;96291.16;;;-0.83;85.09
26978;BME280;56314;48.088;11.642;2023-01-29T06:11:07;96291.94;;;-0.78;83.33
26978;BME280;56314;48.088;11.642;2023-01-29T06:13:33;96286.78;;;-0.78;83.50
26978;BME280;56314;48.088;11.642;2023-01-29T06:15:59;96284.09;;;-0.73;84.56
26978;BME280;56314;48.088;11.642;2023-01-29T06:18:24;96282.13;;;-0.58;85.82
26978;BME280;56314;48.088;11.642;2023-01-29T06:20:50;96283.94;;;-0.62;85.23
26978;BME280;56314;48.088;11.642;2023-01-29T06:23:15;96284.00;;;-0.67;83.84
26978;BME280;56314;48.088;11.642;2023-01-29T06:25:40;96285.81;;;-0.72;83.05
26978;BME280;56314;48.088;11.642;2023-01-29T06:28:06;96282.19;;;-0.62;83.45
26978;BME280;56314;48.088;11.642;2023-01-29T06:30:31;96290.84;;;-0.64;81.27
26978;BME280;56314;48.088;11.642;2023-01-29T06:32:57;96287.59;;;-0.75;80.65
26978;BME280;56314;48.088;11.642;2023-01-29T06:35:24;96293.66;;;-0.78;80.66
26978;BME280;56314;48.088;11.642;2023-01-29T06:37:49;96298.00;;;-0.82;80.17
26978;BME280;56314;48.088;11.642;2023-01-29T06:40:15;96301.50;;;-0.84;79.83
26978;BME280;56314;48.088;11.642;2023-01-29T06:42:40;96296.34;;;-0.84;80.33
26978;BME280;56314;48.088;11.642;2023-01-29T06:45:06;96294.47;;;-0.74;80.47
26978;BME280;56314;48.088;11.642;2023-01-29T06:47:31;96303.09;;;-0.77;79.81
26978;BME280;56314;48.088;11.642;2023-01-29T06:49:57;96301.34;;;-0.75;77.16
26978;BME280;56314;48.088;11.642;2023-01-29T06:52:22;96304.91;;;-0.84;76.80
26978;BME280;56314;48.088;11.642;2023-01-29T06:54:49;96302.38;;;-0.85;77.53
26978;BME280;56314;48.088;11.642;2023-01-29T06:57:14;96308.31;;;-0.82;77.27
26978;BME280;56314;48.088;11.642;2023-01-29T06:59:40;96302.34;;;-0.84;77.52
26978;BME280;56314;48.088;11.642;2023-01-29T07:02:05;96303.97;;;-0.78;77.71
26978;BME280;56314;48.088;11.642;2023-01-29T07:04:30;96291.81;;;-0.71;76.53
26978;BME280;56314;48.088;11.642;2023-01-29T07:06:58;96295.25;;;-0.71;77.78
26978;BME280;56314;48.088;11.642;2023-01-29T07:09:24;96290.06;;;-0.68;77.79
26978;BME280;56314;48.088;11.642;2023-01-29T07:11:49;96291.91;;;-0.76;76.91
26978;BME280;56314;48.088;11.642;2023-01-29T07:14:14;96300.53;;;-0.79;77.00
26978;BME280;56314;48.088;11.642;2023-01-29T07:16:40;96298.53;;;-0.63;79.68
26978;BME280;56314;48.088;11.642;2023-01-29T07:19:05;96300.97;;;-0.55;79.30
26978;BME280;56314;48.088;11.642;2023-01-29T07:21:30;96292.44;;;-0.58;78.97
26978;BME280;56314;48.088;11.642;2023-01-29T07:23:56;96293.28;;;-0.56;77.36
26978;BME280;56314;48.088;11.642;2023-01-29T07:26:21;96281.50;;;-0.71;77.24
26978;BME280;56314;48.088;11.642;2023-01-29T07:28:47;96285.78;;;-0.69;77.55
26978;BME280;56314;48.088;11.642;2023-01-29T07:31:13;96277.78;;;-0.56;75.20
26978;BME280;56314;48.088;11.642;2023-01-29T07:33:39;96281.16;;;-0.53;75.00
26978;BME280;56314;48.088;11.642;2023-01-29T07:36:07;96284.56;;;-0.52;74.46
26978;BME280;56314;48.088;11.642;2023-01-29T07:38:33;96287.97;;;-0.50;77.41
26978;BME280;56314;48.088;11.642;2023-01-29T07:40:58;96272.53;;;-0.52;78.47
26978;BME280;56314;48.088;11.642;2023-01-29T07:43:23;96274.44;;;-0.62;78.85
26978;BME280;56314;48.088;11.642;2023-01-29T07:45:49;96272.63;;;-0.56;77.96
26978;BME280;56314;48.088;11.642;2023-01-29T07:48:14;96275.22;;;-0.56;79.37
26978;BME280;56314;48.088;11.642;2023-01-29T07:50:40;96269.13;;;-0.54;79.68
26978;BME280;56314;48.088;11.642;2023-01-29T07:53:05;96270.00;;;-0.55;78.46
26978;BME280;56314;48.088;11.642;2023-01-29T07:55:32;96260.56;;;-0.54;76.51
26978;BME280;56314;48.088;11.642;2023-01-29T07:57:59;96257.94;;;-0.53;76.75
26978;BME280;56314;48.088;11.642;2023-01-29T08:00:24;96258.84;;;-0.55;74.49
26978;BME280;56314;48.088;11.642;2023-01-29T08:02:50;96268.47;;;-0.64;74.29
26978;BME280;56314;48.088;11.642;2023-01-29T08:05:15;96265.78;;;-0.57;74.46
26978;BME280;56314;48.088;11.642;2023-01-29T08:07:40;96258.84;;;-0.55;73.06
26978;BME280;56314;48.088;11.642;2023-01-29T08:10:06;96254.50;;;-0.53;73.26
26978;BME280;56314;48.088;11.642;2023-01-29T08:12:31;96250.06;;;-0.47;73.67
26978;BME280;56314;48.088;11.642;2023-01-29T08:14:57;96258.44;;;-0.35;74.69
26978;BME280;56314;48.088;11.642;2023-01-29T08:17:22;96257.69;;;-0.40;76.68
26978;BME280;56314;48.088;11.642;2023-01-29T08:19:47;96258.44;;;-0.35;78.28
26978;BME280;56314;48.088;11.642;2023-01-29T08:22:13;96258.53;;;-0.40;81.02
26978;BME280;56314;48.088;11.642;2023-01-29T08:24:40;96255.06;;;-0.37;81.34
26978;BME280;56314;48.088;11.642;2023-01-29T08:27:06;96256.69;;;-0.33;82.29
26978;BME280;56314;48.088;11.642;2023-01-29T08:29:31;96259.84;;;-0.19;82.54
26978;BME280;56314;48.088;11.642;2023-01-29T08:31:57;96266.59;;;-0.13;77.89
26978;BME280;56314;48.088;11.642;2023-01-29T08:34:22;96263.44;;;-0.27;73.85
26978;BME280;56314;48.088;11.642;2023-01-29T08:36:48;96267.72;;;-0.25;74.02
26978;BME280;56314;48.088;11.642;2023-01-29T08:39:13;96265.78;;;-0.15;73.60
26978;BME280;56314;48.088;11.642;2023-01-29T08:41:38;96267.59;;;-0.19;72.53
26978;BME280;56314;48.088;11.642;2023-01-29T08:44:04;96274.25;;;-0.08;72.91
26978;BME280;56314;48.088;11.642;2023-01-29T08:46:30;96284.44;;;-0.01;72.02
26978;BME280;56314;48.088;11.642;2023-01-29T08:48:55;96289.44;;;0.07;71.12
26978;BME280;56314;48.088;11.642;2023-01-29T08:51:23;96292.28;;;-0.05;71.42
26978;BME280;56314;48.088;11.642;2023-01-29T08:53:49;96301.81;;;-0.09;72.19
26978;BME280;56314;48.088;11.642;2023-01-29T08:56:14;96303.53;;;-0.09;71.89
26978;BME280;56314;48.088;11.642;2023-01-29T08:58:40;96302.50;;;-0.01;72.08
26978;BME280;56314;48.088;11.642;2023-01-29T09:01:10;96303.28;;;0.05;71.10
26978;BME280;56314;48.088;11.642;2023-01-29T09:03:36;96302.16;;;0.17;71.38
26978;BME280;56314;48.088;11.642;2023-01-29T09:06:05;96312.38;;;0.21;72.38
26978;BME280;56314;48.088;11.642;2023-01-29T09:08:31;96307.31;;;0.17;71.85
26978;BME280;56314;48.088;11.642;2023-01-29T09:10:58;96301.16;;;0.22;70.66
26978;BME280;56314;48.088;11.642;2023-01-29T09:13:24;96310.66;;;0.22;70.80
26978;BME280;56314;48.088;11.642;2023-01-29T09:15:50;96309.78;;;0.21;69.99
26978;BME280;56314;48.088;11.642;2023-01-29T09:18:15;96314.78;;;0.29;70.63
26978;BME280;56314;48.088;11.642;2023-01-29T09:20:40;96321.72;;;0.27;71.41
26978;BME280;56314;48.088;11.642;2023-01-29T09:23:07;96325.44;;;0.15;71.86
26978;BME280;56314;48.088;11.642;2023-01-29T09:25:33;96329.72;;;0.14;72.00
26978;BME280;56314;48.088;11.642;2023-01-29T09:27:58;96329.63;;;0.19;73.84
26978;BME280;56314;48.088;11.642;2023-01-29T09:30:24;96329.63;;;0.19;72.20
26978;BME280;56314;48.088;11.642;2023-01-29T09:32:49;96327.84;;;0.23;70.17
26978;BME280;56314;48.088;11.642;2023-01-29T09:35:14;96335.53;;;0.26;70.56
26978;BME280;56314;48.088;11.642;2023-01-29T09:37:40;96334.84;;;0.18;72.04
26978;BME280;56314;48.088;11.642;2023-01-29T09:40:06;96341.66;;;0.20;71.32
26978;BME280;56314;48.088;11.642;2023-01-29T09:42:48;96346.94;;;0.15;72.31
26978;BME280;56314;48.088;11.642;2023-01-29T09:45:22;96345.22;;;0.16;72.61
26978;BME280;56314;48.088;11.642;2023-01-29T09:47:52;96338.78;;;0.36;73.96
26978;BME280;56314;48.088;11.642;2023-01-29T09:50:29;96348.53;;;0.23;72.38
26978;BME280;56314;48.088;11.642;2023-01-29T09:53:03;96353.44;;;0.35;72.65
26978;BME280;56314;48.088;11.642;2023-01-29T09:55:38;96358.47;;;0.41;72.42
26978;BME280;56314;48.088;11.642;2023-01-29T09:58:20;96352.66;;;0.30;72.10
26978;BME280;56314;48.088;11.642;2023-01-29T10:01:21;96350.66;;;0.44;73.21
26978;BME280;56314;48.088;11.642;2023-01-29T10:09:45;96348.25;;;0.35;71.10
26978;BME280;56314;48.088;11.642;2023-01-29T10:25:06;96327.53;;;0.76;70.00
26978;BME280;56314;48.088;11.642;2023-01-29T10:27:37;96318.16;;;0.72;69.27
26978;BME280;56314;48.088;11.642;2023-01-29T10:30:08;;;;0.85;
26978;BME280;56314;48.088;11.642;2023-01-29T10:32:43;96323.03;;;0.84;69.55
26978;BME280;56314;48.088;11.642;2023-01-29T10:35:21;96321.97;;;0.93;68.23
26978;BME280;56314;48.088;11.642;2023-01-29T10:37:47;96316.94;;;0.87;68.22
26978;BME280;56314;48.088;11.642;2023-01-29T10:42:49;96323.09;;;0.83;69.24
26978;BME280;56314;48.088;11.642;2023-01-29T10:45:32;96322.19;;;0.84;69.95
26978;BME280;56314;48.088;11.642;2023-01-29T10:59:38;96316.81;;;0.91;69.27
26978;BME280;56314;48.088;11.642;2023-01-29T11:02:13;96320.09;;;1.00;69.84
26978;BME280;56314;48.088;11.642;2023-01-29T11:04:39;96320.09;;;0.98;69.00
26978;BME280;56314;48.088;11.642;2023-01-29T11:07:05;96318.56;;;0.91;69.65
26978;BME280;56314;48.088;11.642;2023-01-29T11:09:34;96305.69;;;0.88;69.60
26978;BME280;56314;48.088;11.642;2023-01-29T11:12:07;96309.84;;;0.95;67.92
26978;BME280;56314;48.088;11.642;2023-01-29T11:14:48;96303.88;;;0.93;67.63
26978;BME280;56314;48.088;11.642;2023-01-29T11:17:21;96298.88;;;0.85;68.89
26978;BME280;56314;48.088;11.642;2023-01-29T11:19:48;96295.91;;;1.01;68.78
26978;BME280;56314;48.088;11.642;2023-01-29T11:22:26;96295.25;;;0.92;69.21
26978;BME280;56314;48.088;11.642;2023-01-29T11:25:15;96293.88;;;0.77;68.02
26978;BME280;56314;48.088;11.642;2023-01-29T11:27:48;96300.81;;;0.75;69.22
26978;BME280;56314;48.088;11.642;2023-01-29T11:32:49;96294.69;;;0.80;69.26
26978;BME280;56314;48.088;11.642;2023-01-29T11:37:43;96298.06;;;0.83;68.80
26978;BME280;56314;48.088;11.642;2023-01-29T11:42:47;96287.25;;;0.67;68.79
26978;BME280;56314;48.088;11.642;2023-01-29T11:47:48;96284.59;;;0.70;69.06
26978;BME280;56314;48.088;11.642;2023-01-29T11:50:29;96280.25;;;0.71;68.72
26978;BME280;56314;48.088;11.642;2023-01-29T11:52:57;96273.25;;;0.74;69.15
26978;BME280;56314;48.088;11.642;2023-01-29T11:55:25;96263.81;;;0.73;69.25
26978;BME280;56314;48.088;11.642;2023-01-29T11:58:03;96249.28;;;0.68;68.74
26978;BME280;56314;48.088;11.642;2023-01-29T12:00:32;96229.72;;;0.57;69.45
26978;BME280;56314;48.088;11.642;2023-01-29T12:03:22;96217.44;;;0.67;68.01
26978;BME280;56314;48.088;11.642;2023-01-29T12:08:56;96205.56;;;0.60;68.65
26978;BME280;56314;48.088;11.642;2023-01-29T12:11:30;96193.66;;;0.53;68.75
26978;BME280;56314;48.088;11.642;2023-01-29T12:14:02;96196.69;;;0.70;69.10
26978;BME280;56314;48.088;11.642;2023-01-29T12:16:43;96189.63;;;0.77;70.03
26978;BME280;56314;48.088;11.642;2023-01-29T12:19:18;96186.72;;;0.89;68.43
26978;BME280;56314;48.088;11.642;2023-01-29T12:24:40;96188.66;;;1.14;67.74
26978;BME280;56314;48.088;11.642;2023-01-29T12:27:14;96183.50;;;1.14;67.37
26978;BME280;56314;48.088;11.642;2023-01-29T12:29:51;96192.59;;;1.28;67.33
26978;BME280;56314;48.088;11.642;2023-01-29T12:32:36;96190.69;;;1.34;66.95
26978;BME280;56314;48.088;11.642;2023-01-29T12:35:11;96195.66;;;1.42;64.69
26978;BME280;56314;48.088;11.642;2023-01-29T12:40:59;96216.09;;;1.20;66.17
26978;BME280;56314;48.088;11.642;2023-01-29T12:43:34;96210.88;;;1.21;65.27
26978;BME280;56314;48.088;11.642;2023-01-29T12:46:05;96200.72;;;1.14;65.94
26978;BME280;56314;48.088;11.642;2023-01-29T12:48:37;96201.59;;;1.14;66.14
26978;BME280;56314;48.088;11.642;2023-01-29T12:51:07;96196.88;;;1.29;67.01
26978;BME280;56314;48.088;11.642;2023-01-29T12:53:42;96188.41;;;1.23;67.38
26978;BME280;56314;48.088;11.642;2023-01-29T12:56:14;96182.75;;;1.09;67.25
26978;BME280;56314;48.088;11.642;2023-01-29T12:58:49;96175.28;;;0.98;68.28
26978;BME280;56314;48.088;11.642;2023-01-29T13:01:36;96178.53;;;1.05;67.42
26978;BME280;56314;48.088;11.642;2023-01-29T13:04:15;96173.34;;;1.06;67.04
26978;BME280;56314;48.088;11.642;2023-01-29T13:06:48;96164.69;;;1.07;68.67
26978;BME280;56314;48.088;11.642;2023-01-29T13:09:26;96158.72;;;1.04;69.01
26978;BME280;56314;48.088;11.642;2023-01-29T13:11:57;96153.44;;;1.08;67.74
26978;BME280;56314;48.088;11.642;2023-01-29T13:14:30;96148.91;;;1.17;66.12
26978;BME280;56314;48.088;11.642;2023-01-29T13:19:58;96140.13;;;0.91;67.46
26978;BME280;56314;48.088;11.642;2023-01-29T13:22:28;96132.28;;;0.94;67.23
26978;BME280;56314;48.088;11.642;2023-01-29T13:24:56;96129.97;;;0.83;67.29
26978;BME280;56314;48.088;11.642;2023-01-29T13:27:27;96129.34;;;0.75;66.98
26978;BME280;56314;48.088;11.642;2023-01-29T13:29:54;96127.72;;;0.71;67.86
26978;BME280;56314;48.088;11.642;2023-01-29T13:32:25;96134.88;;;0.61;68.34
26978;BME280;56314;48.088;11.642;2023-01-29T13:34:56;96125.59;;;0.54;68.37
26978;BME280;56314;48.088;11.642;2023-01-29T13:37:34;96126.47;;;0.53;69.42
26978;BME280;56314;48.088;11.642;2023-01-29T13:40:03;96122.81;;;0.61;68.67
26978;BME280;56314;48.088;11.642;2023-01-29T13:42:38;96120.22;;;0.61;68.94
26978;BME280;56314;48.088;11.642;2023-01-29T13:45:08;96117.59;;;0.63;69.00
26978;BME280;56314;48.088;11.642;2023-01-29T13:47:42;96118.59;;;0.57;70.55
26978;BME280;56314;48.088;11.642;2023-01-29T13:50:36;96115.97;;;0.59;72.39
26978;BME280;56314;48.088;11.642;2023-01-29T13:53:05;96105.66;;;0.59;70.91
26978;BME280;56314;48.088;11.642;2023-01-29T13:55:37;96103.81;;;0.63;71.13
26978;BME280;56314;48.088;11.642;2023-01-29T13:58:17;96105.34;;;0.70;72.07
26978;BME280;56314;48.088;11.642;2023-01-29T14:01:01;96106.16;;;0.72;72.39
26978;BME280;56314;48.088;11.642;2023-01-29T14:08:38;96096.69;;;0.71;71.95
26978;BME280;56314;48.088;11.642;2023-01-29T14:11:33;96102.00;;;0.66;71.54
26978;BME280;56314;48.088;11.642;2023-01-29T14:13:59;96094.19;;;0.68;71.58
26978;BME280;56314;48.088;11.642;2023-01-29T14:16:27;96087.94;;;0.76;71.33
26978;BME280;56314;48.088;11.642;2023-01-29T14:19:01;96083.66;;;0.75;71.78
26978;BME280;56314;48.088;11.642;2023-01-29T14:21:31;96088.00;;;0.73;72.16
26978;BME280;56314;48.088;11.642;2023-01-29T14:24:17;96098.28;;;0.76;71.92
26978;BME280;56314;48.088;11.642;2023-01-29T14:26:44;96092.41;;;0.71;71.59
26978;BME280;56314;48.088;11.642;2023-01-29T14:34:30;96093.44;;;0.64;72.19
26978;BME280;56314;48.088;11.642;2023-01-29T14:37:01;96102.84;;;0.67;72.25
26978;BME280;56314;48.088;11.642;2023-01-29T14:42:22;96111.72;;;0.56;72.35
26978;BME280;56314;48.088;11.642;2023-01-29T14:53:02;96132.75;;;0.42;73.45
26978;BME280;56314;48.088;11.642;2023-01-29T14:55:40;96127.53;;;0.45;74.51
26978;BME280;56314;48.088;11.642;2023-01-29T14:58:18;96118.88;;;0.47;73.33
26978;BME280;56314;48.088;11.642;2023-01-29T15:00:50;96118.78;;;0.50;73.80
26978;BME280;56314;48.088;11.642;2023-01-29T15:03:26;96117.22;;;0.44;73.52
26978;BME280;56314;48.088;11.642;2023-01-29T15:05:53;96120.03;;;0.35;74.51
26978;BME280;56314;48.088;11.642;2023-01-29T15:10:56;96102.19;;;0.25;74.70
26978;BME280;56314;48.088;11.642;2023-01-29T15:13:47;96102.94;;;0.29;76.31
26978;BME280;56314;48.088;11.642;2023-01-29T15:16:23;96103.94;;;0.23;75.60